Shadowrun.fr Shadowrun en France et en français

Forums shadowrun.fr

Shadowrun en français

Vous n’êtes pas identifié.

Annonce

L’inscription de nouveaux utilisateurs sur le forum est temporairement fermée pour cause de spam ; mais n‘hésitez pas à nous contacter pour que nous vous enregistrions manuellement !

Shadowrun 4

Discussion Réponses Vues Dernier message
3 708 05/01/2009 23:27:21 par Skarn Ka
11 1919 04/01/2009 19:03:53 par Namergon
6 993 31/12/2008 11:50:37 par Namergon
17 1566 30/12/2008 19:35:42 par akazahn
Invisibilité par Zen  [ 1 2 ]
29 4562 30/12/2008 14:52:06 par Namergon
9 907 30/12/2008 13:31:35 par Namergon
5 944 26/12/2008 20:17:41 par raoul
4 811 21/12/2008 22:27:30 par Ambre
1 618 19/12/2008 10:54:11 par Murdoch
Supplément Allemand par Shaken
6 1466 10/12/2008 10:35:23 par Shaken
6 1593 09/12/2008 23:00:59 par akazahn
jacpoint MJ ONLY par lotus
5 1312 05/12/2008 15:17:20 par Daegann
2 1029 30/11/2008 11:43:59 par phenice
8 1894 27/11/2008 19:37:08 par darkwind
10 2201 26/11/2008 11:41:14 par Raven
8 3925 24/11/2008 21:40:46 par raoul
La Campagne Electorale par Zero Cool
16 6127 21/11/2008 12:22:15 par Gaynor
25 4209 20/11/2008 16:21:40 par Gaynor
12 1654 20/11/2008 14:52:21 par Murdoch
1 907 19/11/2008 20:06:56 par raoul
19 5818 18/11/2008 22:10:40 par Namergon
ligue des caraïbes par akazahn
4 1403 16/11/2008 23:58:42 par Cheschire Cat
Accès Admin VS CI par Mist-e-Fire
11 3374 16/11/2008 11:05:25 par samantha
3 1008 15/11/2008 18:08:39 par Cheschire Cat
Réimpression par Shaken
7 1499 06/11/2008 12:20:48 par Shaken
2 951 06/11/2008 00:06:50 par Greybird
4 1201 03/11/2008 15:13:47 par dragrubis
Le cash par Zaranos
19 5785 31/10/2008 11:02:02 par Zaranos
2 1396 30/10/2008 20:14:30 par Papa
Mage / Chaman par Baal
5 1608 29/10/2008 13:43:44 par Murdoch
Ludik Bazar — Destockage de jeux de simulation

Pied de page des forums

Propulsé par PunBB
par Rickard Andersson